ZA62 weather

CLOSED Yablonovskiy Airstrip
Yablonovskiy, Republic of Adygea, Russia

Public forecast

Using degrees Celsius for public forecast. Weather courtesy of forecast.io.

METAR (pilot weather report)

Closest report is Krasnodar Pashkovsky International Airport, 8.4 nm (15.6 km) ENE. Retrieved 2019/08/21 15:30 UTC (15 minutes ago):

URKK 211530Z 02004MPS CAVOK 30/16 Q1009 R05R/CLRD70 NOSIG RMK QFE754

TAF (pilot weather forecast)

Closest forecast is Krasnodar Pashkovsky International Airport, 8.4 nm (15.6 km) ENE. Retrieved 2019/08/21 15:21 UTC (24 minutes ago):

TAF URKK 211354Z 2115/2215 06003G08MPS 9999 SCT030CB TEMPO 2115/2215 VRB07G15MPS 3100 -TSRA SCT011 BKN030CB